Time;durP1;ratioP1;P1;durP2;ratioP2;P2;SDS_P1;SDS_P2;PMS_P1;PMS_P2;Temp;Humidity;BMP_temperature;BMP_pressure;BME280_temperature;BME280_humidity;BME280_pressure;Samples;Min_cycle;Max_cycle;Signal;HPM_P1;HPM_P2
2022/08/06 00:02:23;;;;;;;2.53;2.53;;;25.80;65.70;;;;;;5088289;27;44017;-72
2022/08/06 00:04:56;;;;;;;2.83;2.73;;;25.70;65.60;;;;;;5069409;28;43917;-71
2022/08/06 00:07:24;;;;;;;2.38;2.38;;;25.70;66.30;;;;;;5088272;27;44030;-71
2022/08/06 00:09:56;;;;;;;2.50;2.50;;;25.60;66.30;;;;;;5087880;27;44054;-72
2022/08/06 00:12:29;;;;;;;2.40;2.40;;;25.60;66.00;;;;;;5087817;27;43670;-71
2022/08/06 00:15:00;;;;;;;2.23;2.23;;;25.50;66.50;;;;;;5088009;27;43432;-71
2022/08/06 00:17:41;;;;;;;2.53;2.33;;;25.50;66.90;;;;;;5088381;27;43408;-72
2022/08/06 00:20:10;;;;;;;3.15;2.60;;;25.50;66.80;;;;;;5087700;27;43973;-70
2022/08/06 00:22:52;;;;;;;2.10;2.10;;;25.50;66.70;;;;;;5087656;27;43967;-72
2022/08/06 00:25:20;;;;;;;2.17;2.17;;;25.40;67.30;;;;;;5088012;27;44029;-72
2022/08/06 00:27:48;;;;;;;2.22;2.13;;;25.40;67.50;;;;;;5088300;27;43482;-71
2022/08/06 00:30:19;;;;;;;2.40;2.30;;;25.40;67.50;;;;;;5087950;27;43724;-71
2022/08/06 00:32:51;;;;;;;2.70;2.60;;;25.50;67.10;;;;;;5087032;27;44086;-71
2022/08/06 00:35:22;;;;;;;2.25;2.25;;;25.60;66.70;;;;;;5069120;28;44003;-71
2022/08/06 00:37:55;;;;;;;2.30;2.20;;;25.70;66.20;;;;;;5087841;27;43337;-72
2022/08/06 00:40:26;;;;;;;2.10;2.10;;;25.80;65.80;;;;;;5087220;27;43615;-72
2022/08/06 00:42:56;;;;;;;2.10;2.10;;;25.80;65.50;;;;;;5086853;27;43943;-71
2022/08/06 00:45:24;;;;;;;2.17;2.17;;;25.70;65.80;;;;;;5087404;27;43387;-71
2022/08/06 00:47:54;;;;;;;2.33;2.30;;;25.60;66.30;;;;;;5087921;27;43975;-71
2022/08/06 00:50:30;;;;;;;2.20;2.10;;;25.60;66.30;;;;;;5068865;27;46033;-71
2022/08/06 00:52:58;;;;;;;2.20;2.10;;;25.60;66.10;;;;;;5086614;27;44003;-72
2022/08/06 00:55:27;;;;;;;1.95;1.95;;;25.50;66.30;;;;;;5087492;27;43364;-71
2022/08/06 00:58:05;;;;;;;2.10;2.10;;;25.50;67.00;;;;;;5087869;27;43813;-73
2022/08/06 01:00:33;;;;;;;2.20;2.10;;;25.50;67.20;;;;;;5087312;27;43925;-71
2022/08/06 01:03:10;;;;;;;2.27;2.10;;;25.60;66.90;;;;;;5087348;27;43420;-71
2022/08/06 01:05:54;;;;;;;2.10;2.00;;;25.60;66.40;;;;;;5068773;28;43817;-71
2022/08/06 01:08:42;;;;;;;2.20;2.20;;;25.70;66.00;;;;;;5087586;27;44003;-72
2022/08/06 01:11:12;;;;;;;1.90;1.90;;;25.70;65.90;;;;;;5086985;27;43963;-71
2022/08/06 01:13:40;;;;;;;2.03;1.92;;;25.60;65.80;;;;;;5101820;27;44023;-71
2022/08/06 01:16:35;;;;;;;1.95;1.95;;;25.60;66.70;;;;;;5101077;27;43978;-71
2022/08/06 01:19:18;;;;;;;2.00;2.00;;;25.50;66.60;;;;;;5088963;27;43485;-72
2022/08/06 01:22:06;;;;;;;1.90;1.90;;;25.50;66.60;;;;;;5086894;27;44036;-71
2022/08/06 01:25:04;;;;;;;1.90;1.90;;;25.50;67.10;;;;;;5068386;28;44468;-72
2022/08/06 01:27:39;;;;;;;2.00;2.00;;;25.40;67.40;;;;;;5086943;27;43893;-71
2022/08/06 01:30:10;;;;;;;2.00;2.00;;;25.50;67.20;;;;;;5087085;27;43989;-70
2022/08/06 01:32:46;;;;;;;1.83;1.83;;;25.60;66.70;;;;;;5086804;27;43945;-72
2022/08/06 01:35:18;;;;;;;1.90;1.90;;;25.60;66.20;;;;;;5086689;27;43921;-71
2022/08/06 01:38:07;;;;;;;2.08;2.08;;;25.70;65.90;;;;;;5068087;28;43858;-71
2022/08/06 01:40:38;;;;;;;1.90;1.90;;;25.60;65.70;;;;;;5080825;27;43960;-72
2022/08/06 01:43:10;;;;;;;1.83;1.83;;;25.60;66.30;;;;;;5067771;27;45678;-71
2022/08/06 01:45:58;;;;;;;1.70;1.70;;;25.50;66.60;;;;;;5090065;27;44056;-71
2022/08/06 01:48:26;;;;;;;1.70;1.70;;;25.50;66.60;;;;;;5090322;27;43805;-72
2022/08/06 01:50:58;;;;;;;1.75;1.75;;;25.50;66.60;;;;;;5090703;27;43892;-72
2022/08/06 01:53:29;;;;;;;1.80;1.80;;;25.40;66.70;;;;;;5090350;27;44349;-72
2022/08/06 01:56:17;;;;;;;1.65;1.65;;;25.40;66.80;;;;;;5090347;27;43483;-71
2022/08/06 01:58:59;;;;;;;1.80;1.80;;;25.30;66.80;;;;;;5090136;27;43882;-71
2022/08/06 02:01:27;;;;;;;1.70;1.70;;;25.30;67.00;;;;;;5090652;27;43999;-72
2022/08/06 02:04:15;;;;;;;1.90;1.90;;;25.30;67.10;;;;;;5089918;27;43910;-71
2022/08/06 02:06:44;;;;;;;1.58;1.58;;;25.20;67.20;;;;;;5089889;27;43471;-71
2022/08/06 02:09:18;;;;;;;1.70;1.70;;;25.20;67.20;;;;;;5090222;27;43762;-72
2022/08/06 02:11:54;;;;;;;2.17;2.17;;;25.20;68.20;;;;;;5072102;27;44090;-71
2022/08/06 02:14:39;;;;;;;2.15;1.80;;;25.30;68.10;;;;;;5085217;27;43949;-71
2022/08/06 02:17:11;;;;;;;1.60;1.60;;;25.40;67.20;;;;;;5089754;27;43787;-71
2022/08/06 02:19:44;;;;;;;1.60;1.60;;;25.60;66.20;;;;;;5089721;27;43967;-71
2022/08/06 02:22:34;;;;;;;1.85;1.75;;;25.90;65.40;;;;;;5090391;27;44041;-70
2022/08/06 02:25:04;;;;;;;1.45;1.45;;;26.20;64.40;;;;;;5089075;27;43946;-72
2022/08/06 02:27:55;;;;;;;1.50;1.50;;;26.40;63.70;;;;;;5070906;28;45032;-72
2022/08/06 02:30:30;;;;;;;1.35;1.35;;;26.60;62.80;;;;;;5089698;27;44014;-72
2022/08/06 02:33:03;;;;;;;1.60;1.60;;;26.80;63.20;;;;;;5095601;27;43850;-71
2022/08/06 02:35:32;;;;;;;1.50;1.50;;;26.90;61.90;;;;;;5089718;27;43967;-70
2022/08/06 02:38:09;;;;;;;1.45;1.45;;;27.00;61.50;;;;;;5089413;27;43343;-71
2022/08/06 02:40:38;;;;;;;1.40;1.40;;;27.10;61.30;;;;;;5089767;27;44476;-71
2022/08/06 02:43:09;;;;;;;1.33;1.33;;;27.10;61.10;;;;;;5083664;27;44122;-71
2022/08/06 02:45:40;;;;;;;1.60;1.60;;;27.10;60.90;;;;;;5089419;27;43905;-72
2022/08/06 02:48:27;;;;;;;1.40;1.40;;;27.10;60.90;;;;;;5089075;27;44092;-71
2022/08/06 02:51:00;;;;;;;1.42;1.42;;;27.00;61.40;;;;;;5070884;28;43844;-72
2022/08/06 02:53:31;;;;;;;1.35;1.35;;;26.80;61.70;;;;;;5107638;27;43918;-71
2022/08/06 02:56:19;;;;;;;1.50;1.50;;;26.50;62.60;;;;;;5108275;27;43958;-72
2022/08/06 02:58:53;;;;;;;1.50;1.50;;;26.30;63.10;;;;;;5108620;27;44019;-71
2022/08/06 03:01:29;;;;;;;1.50;1.50;;;26.20;63.20;;;;;;5108945;27;43956;-72
2022/08/06 03:04:10;;;;;;;1.23;1.23;;;26.10;63.40;;;;;;5109243;27;43891;-71
2022/08/06 03:06:40;;;;;;;1.50;1.50;;;25.90;64.50;;;;;;5108418;27;45134;-72
2022/08/06 03:09:09;;;;;;;1.40;1.40;;;25.90;64.70;;;;;;5089844;27;46059;-71
2022/08/06 03:11:42;;;;;;;1.33;1.33;;;25.90;64.50;;;;;;5108489;27;44058;-71
2022/08/06 03:14:10;;;;;;;1.73;1.73;;;26.10;64.10;;;;;;5108826;27;44047;-72
2022/08/06 03:17:03;;;;;;;1.50;1.50;;;26.10;63.80;;;;;;5089590;27;45652;-72
2022/08/06 03:19:31;;;;;;;1.67;1.60;;;26.20;63.60;;;;;;5108506;27;43934;-71
2022/08/06 03:22:21;;;;;;;1.40;1.40;;;26.10;63.60;;;;;;5089963;27;44034;-71
2022/08/06 03:25:10;;;;;;;1.65;1.40;;;26.00;63.70;;;;;;5089951;27;43940;-72
2022/08/06 03:27:38;;;;;;;1.60;1.60;;;25.90;64.60;;;;;;5108263;27;44136;-72
2022/08/06 03:30:12;;;;;;;1.40;1.40;;;25.90;64.50;;;;;;5089760;27;44531;-71
2022/08/06 03:33:03;;;;;;;1.45;1.45;;;25.90;64.40;;;;;;5089898;27;43859;-70
2022/08/06 03:35:51;;;;;;;1.30;1.30;;;26.00;64.00;;;;;;5108930;27;43941;-71
2022/08/06 03:38:21;;;;;;;1.40;1.40;;;26.00;64.20;;;;;;5108245;27;44052;-70
2022/08/06 03:40:58;;;;;;;1.50;1.50;;;25.90;64.20;;;;;;5089179;27;45047;-73
2022/08/06 03:43:28;;;;;;;1.42;1.42;;;25.80;64.80;;;;;;5107820;27;43769;-72
2022/08/06 03:46:17;;;;;;;1.30;1.30;;;25.70;65.20;;;;;;5108520;27;44018;-72
2022/08/06 03:48:46;;;;;;;1.30;1.30;;;25.70;65.50;;;;;;5107944;27;43966;-71
2022/08/06 03:51:17;;;;;;;1.30;1.30;;;25.60;65.70;;;;;;5107662;27;43922;-72
2022/08/06 03:54:06;;;;;;;1.40;1.40;;;25.50;66.00;;;;;;5084692;27;43896;-72
2022/08/06 03:56:34;;;;;;;1.17;1.17;;;25.50;66.10;;;;;;5088757;27;44019;-72
2022/08/06 03:59:03;;;;;;;1.30;1.30;;;25.60;65.50;;;;;;5069545;27;45910;-72
2022/08/06 04:01:33;;;;;;;1.20;1.20;;;25.70;65.20;;;;;;5088124;27;43897;-72
2022/08/06 04:04:03;;;;;;;1.30;1.30;;;25.90;64.70;;;;;;5088148;27;43951;-72
2022/08/06 04:06:51;;;;;;;1.25;1.25;;;25.90;64.40;;;;;;5088736;27;43975;-71
2022/08/06 04:09:19;;;;;;;1.20;1.20;;;25.90;64.50;;;;;;5068446;28;44268;-71
2022/08/06 04:12:08;;;;;;;1.30;1.30;;;25.80;64.70;;;;;;5087874;27;43917;-72
2022/08/06 04:14:56;;;;;;;1.45;1.45;;;25.70;65.30;;;;;;5087034;27;44011;-72
2022/08/06 04:17:23;;;;;;;1.30;1.30;;;25.70;65.50;;;;;;5043218;28;43989;-71
2022/08/06 04:20:01;;;;;;;1.10;1.10;;;25.60;65.70;;;;;;5087918;27;43866;-71
2022/08/06 04:22:30;;;;;;;1.30;1.30;;;25.50;65.80;;;;;;5088807;27;44308;-72
2022/08/06 04:25:17;;;;;;;1.35;1.35;;;25.50;66.30;;;;;;5089423;27;43931;-72
2022/08/06 04:27:46;;;;;;;1.33;1.33;;;25.50;65.90;;;;;;5092419;27;43996;-71
2022/08/06 04:30:22;;;;;;;1.00;1.00;;;25.60;65.40;;;;;;5069104;27;45885;-72
2022/08/06 04:32:52;;;;;;;1.20;1.20;;;25.70;64.90;;;;;;5087730;27;43939;-71
2022/08/06 04:35:29;;;;;;;1.10;1.10;;;25.80;64.90;;;;;;5105984;27;44004;-72
2022/08/06 04:38:18;;;;;;;1.05;1.05;;;25.70;65.00;;;;;;5089406;27;43929;-71
2022/08/06 04:40:57;;;;;;;1.17;1.17;;;25.70;65.30;;;;;;5106956;27;44022;-72
2022/08/06 04:43:36;;;;;;;1.20;1.20;;;25.60;65.70;;;;;;5103319;27;43828;-72
2022/08/06 04:46:20;;;;;;;1.27;1.27;;;25.50;65.80;;;;;;5107436;27;44050;-71
2022/08/06 04:48:48;;;;;;;1.20;1.20;;;25.50;65.90;;;;;;5087750;27;44011;-72
2022/08/06 04:51:25;;;;;;;1.10;1.10;;;25.40;66.00;;;;;;5081859;27;43923;-71
2022/08/06 04:54:13;;;;;;;1.20;1.20;;;25.40;66.60;;;;;;5087353;27;43927;-72
2022/08/06 04:56:42;;;;;;;1.10;1.10;;;25.30;66.20;;;;;;5087429;27;44078;-72
2022/08/06 04:59:17;;;;;;;1.20;1.20;;;25.50;65.90;;;;;;5087938;27;43897;-71
2022/08/06 05:01:46;;;;;;;1.20;1.20;;;25.60;65.30;;;;;;5092115;27;43624;-72
2022/08/06 05:04:27;;;;;;;1.20;1.20;;;25.70;65.00;;;;;;5107331;27;43991;-71
2022/08/06 05:07:01;;;;;;;1.20;1.20;;;25.70;65.10;;;;;;5081098;27;43865;-71
2022/08/06 05:09:31;;;;;;;1.20;1.20;;;25.70;65.20;;;;;;5082223;27;43866;-71
2022/08/06 05:12:20;;;;;;;1.13;1.13;;;25.60;65.60;;;;;;5084582;27;45853;-72
2022/08/06 05:14:53;;;;;;;1.10;1.10;;;25.50;65.80;;;;;;5107116;27;43998;-71
2022/08/06 05:17:23;;;;;;;0.90;0.90;;;25.50;65.90;;;;;;5088521;27;43979;-71
2022/08/06 05:19:54;;;;;;;1.00;1.00;;;25.40;66.00;;;;;;5096877;27;43895;-72
2022/08/06 05:22:24;;;;;;;1.10;1.10;;;25.40;66.30;;;;;;5084152;27;45832;-72
2022/08/06 05:25:12;;;;;;;0.95;0.95;;;25.30;66.60;;;;;;5102392;27;44565;-72
2022/08/06 05:27:49;;;;;;;0.90;0.90;;;25.30;66.60;;;;;;5110761;27;43383;-71
2022/08/06 05:30:42;;;;;;;1.20;1.20;;;25.30;66.50;;;;;;5110729;27;44025;-71
2022/08/06 05:33:12;;;;;;;1.10;1.10;;;25.20;66.90;;;;;;5110414;27;43616;-71
2022/08/06 05:35:44;;;;;;;1.00;1.00;;;25.20;66.90;;;;;;5091147;27;43973;-72
2022/08/06 05:38:31;;;;;;;1.10;1.10;;;25.30;66.60;;;;;;5110330;27;43958;-71
2022/08/06 05:41:04;;;;;;;0.97;0.97;;;25.40;66.10;;;;;;5100250;27;43994;-73
2022/08/06 05:43:37;;;;;;;0.90;0.90;;;25.50;65.40;;;;;;5090357;27;43916;-72
2022/08/06 05:46:25;;;;;;;1.00;1.00;;;25.60;65.30;;;;;;5090420;27;43821;-72
2022/08/06 05:48:59;;;;;;;0.90;0.90;;;25.50;66.10;;;;;;5090695;27;43883;-71
2022/08/06 05:51:38;;;;;;;1.10;1.10;;;25.50;65.60;;;;;;5098499;27;43972;-71
2022/08/06 05:54:17;;;;;;;1.10;1.10;;;25.50;66.00;;;;;;5100143;27;44021;-72
2022/08/06 05:56:48;;;;;;;1.00;1.00;;;25.40;66.00;;;;;;5090539;27;44059;-71
2022/08/06 05:59:23;;;;;;;0.90;0.90;;;25.30;66.10;;;;;;5084239;27;44102;-72
2022/08/06 06:02:05;;;;;;;0.90;0.90;;;25.30;66.30;;;;;;5110354;27;43992;-72
2022/08/06 06:04:34;;;;;;;1.00;1.00;;;25.20;66.70;;;;;;5109704;27;44302;-71
2022/08/06 06:07:02;;;;;;;1.10;1.10;;;25.20;66.60;;;;;;5091068;27;44779;-72
2022/08/06 06:09:33;;;;;;;1.00;1.00;;;25.20;66.60;;;;;;5109540;27;43919;-71
2022/08/06 06:12:21;;;;;;;0.90;0.90;;;25.10;65.80;;;;;;5106516;27;44085;-71
2022/08/06 06:14:59;;;;;;;0.90;0.90;;;25.10;66.80;;;;;;5071385;28;45847;-72
2022/08/06 06:17:41;;;;;;;0.90;0.90;;;25.10;66.10;;;;;;5089866;27;44007;-71
2022/08/06 06:20:21;;;;;;;1.00;1.00;;;25.20;65.60;;;;;;5081020;27;43935;-72
2022/08/06 06:23:11;;;;;;;0.90;0.90;;;25.30;65.10;;;;;;5109628;27;44058;-71
2022/08/06 06:25:45;;;;;;;0.90;0.90;;;25.50;64.20;;;;;;5109004;27;43604;-73
2022/08/06 06:28:17;;;;;;;0.90;0.90;;;25.50;64.50;;;;;;5109362;27;43918;-71
2022/08/06 06:30:57;;;;;;;1.10;1.10;;;25.50;63.80;;;;;;5083435;27;44115;-71
2022/08/06 06:33:39;;;;;;;1.00;1.00;;;25.40;64.80;;;;;;5105616;27;43373;-71
2022/08/06 06:36:21;;;;;;;1.05;1.05;;;25.30;65.00;;;;;;5089991;27;45621;-72
2022/08/06 06:38:58;;;;;;;1.60;0.90;;;25.30;65.40;;;;;;5090783;27;44663;-73
2022/08/06 06:41:31;;;;;;;0.87;0.73;;;25.30;65.40;;;;;;5082366;27;43894;-70
2022/08/06 06:44:03;;;;;;;1.20;1.08;;;25.20;62.70;;;;;;5089987;27;43968;-71
2022/08/06 06:46:33;;;;;;;1.30;1.00;;;25.10;63.10;;;;;;5070669;27;46058;-73
2022/08/06 06:49:15;;;;;;;1.10;1.10;;;25.30;61.80;;;;;;5089375;27;44046;-71
2022/08/06 06:52:05;;;;;;;1.47;1.00;;;25.40;61.90;;;;;;5089388;27;43970;-72
2022/08/06 06:54:40;;;;;;;0.90;0.90;;;25.50;62.90;;;;;;5096601;27;43955;-71
2022/08/06 06:57:18;;;;;;;1.30;0.90;;;25.50;62.90;;;;;;5083793;27;44062;-72
2022/08/06 06:59:51;;;;;;;0.90;0.90;;;25.40;63.40;;;;;;5071020;27;44733;-72
2022/08/06 07:02:40;;;;;;;1.10;1.10;;;25.30;64.20;;;;;;5089183;27;43819;-72
2022/08/06 07:05:11;;;;;;;1.07;0.90;;;25.30;64.50;;;;;;5089827;27;43952;-72
2022/08/06 07:07:45;;;;;;;0.75;0.75;;;25.30;64.80;;;;;;5088976;27;43970;-72
2022/08/06 07:10:19;;;;;;;0.70;0.70;;;25.20;64.80;;;;;;5061664;27;45895;-71
2022/08/06 07:12:50;;;;;;;0.97;0.97;;;25.10;65.80;;;;;;5089436;27;43332;-71
2022/08/06 07:15:20;;;;;;;1.00;1.00;;;25.10;65.90;;;;;;5091383;27;43336;-72
2022/08/06 07:17:51;;;;;;;0.77;0.77;;;25.10;65.90;;;;;;5108653;27;43908;-71
2022/08/06 07:20:36;;;;;;;0.90;0.90;;;25.00;65.60;;;;;;5104496;27;44293;-71
2022/08/06 07:23:09;;;;;;;2.57;0.90;;;25.00;66.60;;;;;;5089083;27;43899;-73
2022/08/06 07:25:57;;;;;;;1.10;1.10;;;25.00;66.60;;;;;;5070720;27;43641;-71
2022/08/06 07:28:27;;;;;;;0.90;0.90;;;25.10;66.20;;;;;;5088315;27;44047;-71
2022/08/06 07:30:57;;;;;;;0.83;0.83;;;25.20;65.60;;;;;;5088782;27;43918;-71
2022/08/06 07:33:35;;;;;;;0.90;0.90;;;25.30;65.10;;;;;;5088777;27;43988;-71
2022/08/06 07:36:28;;;;;;;0.90;0.90;;;25.40;65.80;;;;;;5108597;27;43827;-71
2022/08/06 07:39:00;;;;;;;0.83;0.83;;;25.40;65.10;;;;;;5108556;27;43896;-72
2022/08/06 07:41:30;;;;;;;0.80;0.80;;;25.40;65.50;;;;;;5095528;27;43895;-72
2022/08/06 07:44:19;;;;;;;0.90;0.90;;;25.30;65.90;;;;;;5108649;27;43319;-71
2022/08/06 07:46:55;;;;;;;0.90;0.90;;;25.30;66.10;;;;;;5108610;27;43913;-71
2022/08/06 07:49:25;;;;;;;0.80;0.80;;;25.20;65.80;;;;;;5072039;28;45924;-71
2022/08/06 07:52:14;;;;;;;0.88;0.88;;;25.10;66.40;;;;;;5101796;27;43978;-71
2022/08/06 07:54:45;;;;;;;0.80;0.80;;;25.10;66.80;;;;;;5070202;27;43417;-71
2022/08/06 07:57:13;;;;;;;0.80;0.80;;;25.10;66.70;;;;;;5089704;27;43438;-72
2022/08/06 07:59:43;;;;;;;0.90;0.90;;;25.00;66.40;;;;;;5100115;27;44018;-71
2022/08/06 08:02:12;;;;;;;0.87;0.87;;;25.00;66.80;;;;;;5088036;27;43995;-72
2022/08/06 08:07:31;;;;;;;0.70;0.70;;;25.10;67.90;;;;;;5070002;28;43990;-70
2022/08/06 08:10:19;;;;;;;0.83;0.83;;;25.10;66.40;;;;;;5088281;27;44752;-71
2022/08/06 08:12:55;;;;;;;0.80;0.80;;;25.30;66.10;;;;;;5087926;27;44081;-71
2022/08/06 08:15:31;;;;;;;0.70;0.70;;;25.40;65.50;;;;;;5088334;27;43944;-72
2022/08/06 08:17:59;;;;;;;0.80;0.80;;;25.40;65.40;;;;;;5069885;27;43400;-72
2022/08/06 08:20:29;;;;;;;0.70;0.70;;;25.40;65.70;;;;;;5088038;27;43943;-72
2022/08/06 08:23:05;;;;;;;0.63;0.63;;;25.30;66.00;;;;;;5087865;27;43933;-71
2022/08/06 08:25:34;;;;;;;0.60;0.60;;;25.30;66.30;;;;;;5087332;27;44031;-71
2022/08/06 08:28:09;;;;;;;0.70;0.70;;;25.20;66.40;;;;;;5108027;27;43392;-72
2022/08/06 08:30:44;;;;;;;0.80;0.80;;;25.20;66.40;;;;;;5089029;27;45653;-70
2022/08/06 08:33:17;;;;;;;0.80;0.80;;;25.10;66.80;;;;;;5081519;27;43934;-71
2022/08/06 08:35:46;;;;;;;0.80;0.80;;;25.10;67.20;;;;;;5088331;27;44002;-71
2022/08/06 08:38:21;;;;;;;0.70;0.70;;;25.10;66.80;;;;;;5094522;27;43971;-71
2022/08/06 08:40:55;;;;;;;0.70;0.70;;;25.20;66.40;;;;;;5107302;27;44974;-72
2022/08/06 08:43:25;;;;;;;0.80;0.80;;;25.30;65.80;;;;;;5091402;27;44030;-71
2022/08/06 08:46:14;;;;;;;0.87;0.87;;;25.40;65.80;;;;;;5087808;27;44034;-71
2022/08/06 08:48:43;;;;;;;0.60;0.60;;;25.30;65.90;;;;;;5099998;27;44007;-73
2022/08/06 08:51:13;;;;;;;0.90;0.90;;;25.30;66.20;;;;;;5107205;27;43909;-71
2022/08/06 08:53:45;;;;;;;0.90;0.90;;;25.20;66.50;;;;;;5087629;27;44705;-71
2022/08/06 08:56:13;;;;;;;0.70;0.70;;;25.20;66.60;;;;;;5107457;27;43445;-70
2022/08/06 08:59:02;;;;;;;0.90;0.90;;;25.10;66.40;;;;;;5090746;27;44015;-72
2022/08/06 09:01:51;;;;;;;0.80;0.80;;;25.10;67.20;;;;;;5087486;27;44043;-71
2022/08/06 09:04:24;;;;;;;0.80;0.80;;;25.10;67.30;;;;;;5093616;27;43958;-70
2022/08/06 09:06:57;;;;;;;0.60;0.60;;;25.10;66.90;;;;;;5107141;27;44012;-72
2022/08/06 09:09:25;;;;;;;0.70;0.70;;;25.20;66.50;;;;;;5081284;27;44194;-72
2022/08/06 09:11:59;;;;;;;0.70;0.70;;;25.30;66.10;;;;;;5101552;27;44094;-70
2022/08/06 09:14:46;;;;;;;0.60;0.60;;;25.30;66.20;;;;;;5107059;27;43935;-71
2022/08/06 09:17:15;;;;;;;0.67;0.67;;;25.30;66.30;;;;;;5103717;27;43961;-72
2022/08/06 09:20:05;;;;;;;0.70;0.70;;;25.20;66.50;;;;;;5107586;27;43949;-72
2022/08/06 09:22:34;;;;;;;0.67;0.67;;;25.10;66.90;;;;;;5080290;27;44185;-72
2022/08/06 09:25:03;;;;;;;0.60;0.60;;;25.10;66.80;;;;;;5079876;27;44047;-72
2022/08/06 09:27:35;;;;;;;0.70;0.70;;;25.10;66.60;;;;;;5081639;27;43939;-72
2022/08/06 09:30:26;;;;;;;0.70;0.70;;;25.00;67.00;;;;;;5086211;27;44021;-71
2022/08/06 09:32:59;;;;;;;0.80;0.80;;;25.00;67.70;;;;;;5106673;27;44393;-73
2022/08/06 09:35:33;;;;;;;0.60;0.60;;;25.00;67.50;;;;;;5088067;27;44948;-71
2022/08/06 09:38:12;;;;;;;0.70;0.70;;;24.90;67.00;;;;;;5081599;27;43373;-71
2022/08/06 09:41:02;;;;;;;0.70;0.70;;;24.90;67.70;;;;;;5101401;27;43354;-71
2022/08/06 09:43:34;;;;;;;0.70;0.70;;;24.90;68.00;;;;;;5087448;27;46399;-72
2022/08/06 09:46:36;;;;;;;0.80;0.80;;;24.90;67.70;;;;;;5107054;27;44027;-70
2022/08/06 09:49:06;;;;;;;0.70;0.70;;;25.10;67.10;;;;;;5106663;27;43502;-71
2022/08/06 09:52:15;;;;;;;0.73;0.73;;;25.20;66.70;;;;;;5106827;27;43967;-72
2022/08/06 09:54:44;;;;;;;0.70;0.70;;;25.30;66.40;;;;;;5095388;27;44755;-70
2022/08/06 09:57:20;;;;;;;0.53;0.53;;;25.30;66.30;;;;;;5098094;27;44085;-72
2022/08/06 09:59:50;;;;;;;0.60;0.60;;;25.30;66.40;;;;;;5088909;27;44044;-72
2022/08/06 10:02:19;;;;;;;0.60;0.60;;;25.20;66.90;;;;;;5106820;27;43909;-72
2022/08/06 10:04:52;;;;;;;0.50;0.50;;;25.10;66.80;;;;;;5087759;27;45366;-71
2022/08/06 10:07:29;;;;;;;0.63;0.63;;;25.10;66.60;;;;;;5108733;27;44060;-71
2022/08/06 10:10:08;;;;;;;0.70;0.70;;;25.00;67.20;;;;;;5109928;27;44383;-71
2022/08/06 10:12:39;;;;;;;0.60;0.60;;;25.00;67.40;;;;;;5091190;27;43890;-72
2022/08/06 10:15:10;;;;;;;0.70;0.70;;;25.00;67.30;;;;;;5090069;27;44953;-72
2022/08/06 10:17:39;;;;;;;0.70;0.70;;;25.00;67.00;;;;;;5089905;27;44048;-71
2022/08/06 10:20:21;;;;;;;0.57;0.57;;;25.00;67.50;;;;;;5085670;27;43853;-71
2022/08/06 10:22:53;;;;;;;0.70;0.70;;;24.90;67.80;;;;;;5099075;27;43460;-71
2022/08/06 10:25:21;;;;;;;0.60;0.60;;;24.90;67.80;;;;;;5109506;27;44972;-72
2022/08/06 10:27:57;;;;;;;0.50;0.50;;;25.00;67.20;;;;;;5109424;27;43924;-71
2022/08/06 10:30:26;;;;;;;0.50;0.50;;;25.20;66.90;;;;;;5109919;27;44063;-71
2022/08/06 10:33:01;;;;;;;0.60;0.60;;;25.30;66.40;;;;;;5109766;27;44054;-72
2022/08/06 10:35:31;;;;;;;0.60;0.60;;;25.30;66.40;;;;;;5109357;27;44027;-72
2022/08/06 10:38:15;;;;;;;0.60;0.60;;;25.30;66.30;;;;;;5109306;27;43915;-71
2022/08/06 10:40:45;;;;;;;0.63;0.63;;;25.20;66.70;;;;;;5071980;27;43488;-71
2022/08/06 10:43:25;;;;;;;0.60;0.60;;;25.10;66.80;;;;;;5092089;27;43863;-72
2022/08/06 10:46:01;;;;;;;0.70;0.70;;;25.10;66.70;;;;;;5109281;27;43861;-71
2022/08/06 10:48:37;;;;;;;0.70;0.70;;;25.10;66.60;;;;;;5109145;27;43987;-71
2022/08/06 10:51:27;;;;;;;0.70;0.70;;;25.00;67.40;;;;;;5103105;27;43995;-71
2022/08/06 10:54:15;;;;;;;0.57;0.57;;;25.00;67.40;;;;;;5100454;27;44016;-72
2022/08/06 10:56:49;;;;;;;0.50;0.50;;;25.00;67.10;;;;;;5089625;27;44838;-72
2022/08/06 10:59:19;;;;;;;0.67;0.67;;;24.90;67.00;;;;;;5089277;27;43974;-72
2022/08/06 11:02:11;;;;;;;0.60;0.60;;;24.90;67.80;;;;;;5102875;27;43911;-72
2022/08/06 11:04:48;;;;;;;0.50;0.50;;;24.90;67.90;;;;;;5089734;27;44004;-71
2022/08/06 11:07:33;;;;;;;0.50;0.50;;;25.00;67.60;;;;;;5089177;27;44122;-72
2022/08/06 11:10:44;;;;;;;0.57;0.57;;;25.10;67.00;;;;;;5070944;28;44766;-72
2022/08/06 11:13:20;;;;;;;0.60;0.60;;;25.30;66.50;;;;;;5070628;27;43971;-71
2022/08/06 11:15:48;;;;;;;0.50;0.50;;;25.30;66.40;;;;;;5089898;27;43835;-71
2022/08/06 11:18:16;;;;;;;0.60;0.60;;;25.30;66.30;;;;;;5088412;27;44152;-71
2022/08/06 11:20:49;;;;;;;0.50;0.50;;;25.20;66.30;;;;;;5100277;27;44000;-72
2022/08/06 11:23:26;;;;;;;0.57;0.57;;;25.10;66.90;;;;;;5108654;27;43986;-71
2022/08/06 11:26:18;;;;;;;0.63;0.63;;;25.10;66.90;;;;;;5109089;27;44018;-72
2022/08/06 11:29:00;;;;;;;0.60;0.60;;;25.10;66.80;;;;;;5106000;27;44072;-72
2022/08/06 11:31:47;;;;;;;0.60;0.60;;;25.00;66.90;;;;;;5070584;28;43545;-71
2022/08/06 11:34:42;;;;;;;0.60;0.60;;;25.00;67.50;;;;;;5083854;27;43956;-70
2022/08/06 11:37:43;;;;;;;0.50;0.50;;;25.00;67.20;;;;;;5089441;27;43979;-72
2022/08/06 11:40:57;;;;;;;0.53;0.53;;;24.90;67.10;;;;;;5088363;27;45171;-73
2022/08/06 11:43:48;;;;;;;0.60;0.60;;;24.90;67.80;;;;;;5090059;27;43964;-71
2022/08/06 11:46:32;;;;;;;0.60;0.60;;;24.90;68.00;;;;;;5077006;28;43936;-72
2022/08/06 11:49:25;;;;;;;0.50;0.50;;;25.00;67.70;;;;;;5089095;27;43447;-71
2022/08/06 11:51:54;;;;;;;0.60;0.60;;;25.10;67.30;;;;;;5087617;27;43611;-73
2022/08/06 11:54:36;;;;;;;0.50;0.50;;;25.20;66.90;;;;;;5088412;27;43456;-72
2022/08/06 11:57:26;;;;;;;0.67;0.67;;;25.20;66.60;;;;;;5088694;27;43512;-72
2022/08/06 12:00:15;;;;;;;0.50;0.50;;;25.20;66.40;;;;;;5070187;28;44091;-71
2022/08/06 12:02:51;;;;;;;0.70;0.70;;;25.10;66.70;;;;;;5088274;27;43991;-72
2022/08/06 12:05:42;;;;;;;0.53;0.53;;;25.10;67.00;;;;;;5088207;27;43929;-71
2022/08/06 12:08:28;;;;;;;0.57;0.57;;;25.10;66.80;;;;;;5092362;27;43853;-71
2022/08/06 12:11:37;;;;;;;0.70;0.70;;;25.00;66.80;;;;;;5089764;27;43923;-72
2022/08/06 12:14:46;;;;;;;0.70;0.70;;;25.00;67.60;;;;;;5104474;27;44082;-72
2022/08/06 12:17:18;;;;;;;0.57;0.57;;;25.00;67.70;;;;;;5088152;27;43341;-71
2022/08/06 12:19:47;;;;;;;0.57;0.57;;;25.00;67.40;;;;;;5088208;27;43868;-72
2022/08/06 12:22:30;;;;;;;0.50;0.50;;;25.10;66.80;;;;;;5099864;27;43872;-71
2022/08/06 12:25:00;;;;;;;0.70;0.70;;;25.20;66.10;;;;;;5107457;27;44013;-71
2022/08/06 12:27:39;;;;;;;0.70;0.70;;;25.20;66.00;;;;;;5107853;27;43960;-71
2022/08/06 12:30:22;;;;;;;0.50;0.50;;;25.20;66.00;;;;;;5082467;27;44046;-71
2022/08/06 12:33:08;;;;;;;0.60;0.60;;;25.10;66.20;;;;;;5088439;27;44012;-71
2022/08/06 12:35:50;;;;;;;1.10;0.70;;;25.10;66.20;;;;;;5087656;27;43919;-72
2022/08/06 12:38:19;;;;;;;0.60;0.60;;;25.00;66.10;;;;;;5088008;27;43967;-71
2022/08/06 12:40:56;;;;;;;0.70;0.70;;;25.00;66.10;;;;;;5094426;27;43985;-72
2022/08/06 12:43:24;;;;;;;1.43;0.70;;;25.00;66.60;;;;;;5088452;27;44016;-71
2022/08/06 12:46:15;;;;;;;0.60;0.60;;;24.90;66.40;;;;;;5087614;27;43858;-71
2022/08/06 12:48:49;;;;;;;0.60;0.60;;;24.90;66.30;;;;;;5068996;28;44063;-71
2022/08/06 12:51:20;;;;;;;4.03;1.23;;;24.80;66.20;;;;;;5106119;27;44013;-71
2022/08/06 12:53:55;;;;;;;1.10;0.80;;;24.80;67.60;;;;;;5089012;27;44162;-71
2022/08/06 12:56:26;;;;;;;6.00;1.15;;;24.80;66.60;;;;;;5107470;27;43951;-72
2022/08/06 12:58:58;;;;;;;1.60;0.70;;;24.90;66.40;;;;;;5107163;27;43650;-72
2022/08/06 13:01:28;;;;;;;0.70;0.70;;;25.00;66.10;;;;;;5107206;27;43778;-71
2022/08/06 13:04:16;;;;;;;0.93;0.77;;;25.10;65.40;;;;;;5107353;27;44029;-71
2022/08/06 13:06:46;;;;;;;0.50;0.50;;;25.20;65.20;;;;;;5078361;28;46036;-72
2022/08/06 13:09:16;;;;;;;0.70;0.70;;;25.20;65.10;;;;;;5087381;27;43432;-71
2022/08/06 13:11:45;;;;;;;1.77;0.60;;;25.20;65.20;;;;;;5072785;27;43389;-70
2022/08/06 13:14:22;;;;;;;0.50;0.50;;;25.10;65.60;;;;;;5107607;27;43873;-71
2022/08/06 13:16:52;;;;;;;0.50;0.50;;;25.10;65.60;;;;;;5107021;27;43920;-71
2022/08/06 13:19:23;;;;;;;0.70;0.70;;;25.00;65.60;;;;;;5087421;27;44002;-71
2022/08/06 13:22:10;;;;;;;0.50;0.50;;;25.00;66.40;;;;;;5087322;27;43335;-71
2022/08/06 13:24:38;;;;;;;0.60;0.60;;;24.90;66.20;;;;;;5096202;27;44292;-71
2022/08/06 13:27:32;;;;;;;0.60;0.60;;;24.90;66.20;;;;;;5106716;27;43979;-72
2022/08/06 13:30:02;;;;;;;0.60;0.60;;;25.00;65.90;;;;;;5106836;27;43977;-71
2022/08/06 13:32:54;;;;;;;0.63;0.63;;;25.00;65.60;;;;;;5091731;27;43842;-71
2022/08/06 13:35:26;;;;;;;0.63;0.63;;;25.10;65.30;;;;;;5087499;27;43948;-72
2022/08/06 13:38:00;;;;;;;0.67;0.67;;;25.10;65.20;;;;;;5097240;27;44127;-71
2022/08/06 13:40:46;;;;;;;0.50;0.50;;;25.10;65.10;;;;;;5088576;27;43987;-70
2022/08/06 13:43:37;;;;;;;0.50;0.50;;;25.10;65.60;;;;;;5079926;27;43455;-71